Time;durP1;ratioP1;P1;durP2;ratioP2;P2;SDS_P1;SDS_P2;PMS_P1;PMS_P2;Temp;Humidity;BMP_temperature;BMP_pressure;BME280_temperature;BME280_humidity;BME280_pressure;Samples;Min_cycle;Max_cycle;Signal;HPM_P1;HPM_P2
2022/06/03 00:00:06;;;;;;;;;7.00;7.00;;;;;20.87;46.64;99099.72;5009713;27;109850;-62
2022/06/03 00:03:00;;;;;;;;;7.33;6.67;;;;;20.87;46.58;99096.97;4975690;27;104070;-64
2022/06/03 00:05:45;;;;;;;;;6.00;5.00;;;;;20.86;46.17;99109.06;4984481;27;102371;-64
2022/06/03 00:08:24;;;;;;;;;6.00;5.00;;;;;20.86;46.10;99105.47;4966135;27;102390;-64
2022/06/03 00:11:35;;;;;;;;;6.00;5.67;;;;;20.84;46.17;99103.00;5010548;27;102204;-64
2022/06/03 00:14:09;;;;;;;;;4.67;4.00;;;;;20.84;46.21;99088.41;5004050;27;108863;-64
2022/06/03 00:16:56;;;;;;;;;6.00;6.00;;;;;20.84;46.32;99091.16;4998261;27;102032;-64
2022/06/03 00:19:23;;;;;;;;;6.00;6.00;;;;;20.86;46.00;99097.22;5002165;27;102342;-64
2022/06/03 00:22:14;;;;;;;;;5.33;5.33;;;;;20.83;46.09;99090.34;5029275;27;102268;-64
2022/06/03 00:25:15;;;;;;;;;5.00;5.00;;;;;20.79;46.67;99080.09;5015433;27;109067;-64
2022/06/03 00:28:08;;;;;;;;;7.00;7.00;;;;;20.78;46.60;99076.53;4996568;27;102491;-64
2022/06/03 00:30:38;;;;;;;;;7.67;5.67;;;;;20.79;46.44;99069.94;5014974;27;102282;-64
2022/06/03 00:33:13;;;;;;;;;7.67;6.33;;;;;20.79;46.10;99063.63;5008785;27;102154;-64
2022/06/03 00:35:46;;;;;;;;;7.00;6.00;;;;;20.78;45.98;99072.94;4994349;27;104105;-65
2022/06/03 00:38:29;;;;;;;;;6.00;6.00;;;;;20.77;46.32;99066.59;5007280;27;102279;-64
2022/06/03 00:41:30;;;;;;;;;6.00;6.00;;;;;20.78;46.51;99075.69;4999767;28;102563;-64
2022/06/03 00:44:15;;;;;;;;;5.67;5.67;;;;;20.76;46.28;99075.09;5007580;27;102439;-65
2022/06/03 00:47:12;;;;;;;;;6.33;5.00;;;;;20.73;46.62;99070.13;5000732;27;109798;-64
2022/06/03 00:49:48;;;;;;;;;6.00;6.00;;;;;20.75;46.39;99073.47;5007322;27;102374;-64
2022/06/03 00:52:22;;;;;;;;;5.67;5.67;;;;;20.76;46.59;99070.44;4999373;27;104692;-64
2022/06/03 00:55:08;;;;;;;;;4.67;4.67;;;;;20.72;46.12;99066.53;4983663;27;102489;-65
2022/06/03 00:57:57;;;;;;;;;6.00;5.00;;;;;20.69;46.11;99064.31;5031927;27;108916;-64
2022/06/03 01:00:28;;;;;;;;;6.00;5.33;;;;;20.69;46.38;99063.47;5014037;27;102735;-64
2022/06/03 01:03:19;;;;;;;;;5.67;5.67;;;;;20.70;46.35;99056.91;4988977;27;102217;-64
2022/06/03 01:06:03;;;;;;;;;6.33;6.33;;;;;20.70;46.18;99056.91;5003865;27;103777;-64
2022/06/03 01:08:42;;;;;;;;;5.00;5.00;;;;;20.69;46.29;99057.97;4986974;27;108922;-64
2022/06/03 01:11:32;;;;;;;;;4.67;4.33;;;;;20.67;46.11;99060.16;5002173;27;102452;-64
2022/06/03 01:14:14;;;;;;;;;5.67;5.67;;;;;20.65;46.49;99057.66;4974036;28;103982;-64
2022/06/03 01:17:05;;;;;;;;;6.33;6.33;;;;;20.63;46.52;99053.50;4934407;27;103527;-64
2022/06/03 01:19:48;;;;;;;;;6.33;6.33;;;;;20.64;46.38;99066.16;5004288;27;109089;-65
2022/06/03 01:22:53;;;;;;;;;5.00;5.00;;;;;20.66;46.02;99064.00;5009200;27;102038;-64
2022/06/03 01:25:57;;;;;;;;;5.00;4.33;;;;;20.65;46.38;99068.66;4995376;27;102573;-64
2022/06/03 01:28:33;;;;;;;;;5.00;5.00;;;;;20.64;46.24;99066.97;5010877;27;102886;-64
2022/06/03 01:31:29;;;;;;;;;5.33;5.00;;;;;20.63;46.54;99073.56;4997950;27;104422;-64
2022/06/03 01:33:59;;;;;;;;;5.67;4.67;;;;;20.63;46.17;99072.72;4997741;27;102275;-65
2022/06/03 01:36:49;;;;;;;;;5.33;5.33;;;;;20.63;46.08;99069.97;4997309;27;104978;-64
2022/06/03 01:39:30;;;;;;;;;5.67;5.67;;;;;20.60;46.29;99073.25;4983467;27;102563;-64
2022/06/03 01:42:15;;;;;;;;;4.67;4.67;;;;;20.59;46.13;99069.66;5003094;27;104074;-64
2022/06/03 01:45:21;;;;;;;;;5.00;4.67;;;;;20.58;46.22;99073.50;4988146;27;102204;-64
2022/06/03 01:48:09;;;;;;;;;4.67;4.67;;;;;20.55;46.41;99073.16;4952326;27;102681;-64
2022/06/03 01:51:01;;;;;;;;;5.00;5.00;;;;;20.58;46.24;99083.69;5005006;27;102194;-65
2022/06/03 01:53:49;;;;;;;;;5.00;5.00;;;;;20.60;46.17;99084.22;4999516;27;108832;-64
2022/06/03 01:56:35;;;;;;;;;7.00;6.00;;;;;20.58;46.01;99078.19;5011222;27;102310;-64
2022/06/03 01:59:06;;;;;;;;;4.00;4.00;;;;;20.60;46.45;99076.81;5014077;27;102414;-64
2022/06/03 02:02:10;;;;;;;;;5.33;5.00;;;;;20.57;46.08;99076.50;4970077;27;103386;-64
2022/06/03 02:04:54;;;;;;;;;5.67;5.67;;;;;20.57;45.89;99076.50;5018250;27;108817;-64
2022/06/03 02:07:24;;;;;;;;;5.00;4.33;;;;;20.57;45.90;99087.50;5010013;27;104159;-64
2022/06/03 02:10:16;;;;;;;;;5.00;5.00;;;;;20.56;46.00;99091.31;5029637;27;102329;-64
2022/06/03 02:12:54;;;;;;;;;7.00;4.67;;;;;20.54;45.97;99088.81;5013943;27;102326;-64
2022/06/03 02:15:33;;;;;;;;;6.00;5.33;;;;;20.52;46.08;99085.50;5009724;27;104051;-64
2022/06/03 02:18:09;;;;;;;;;5.33;4.67;;;;;20.49;45.99;99088.75;5005874;27;105515;-64
2022/06/03 02:21:03;;;;;;;;;6.67;6.67;;;;;20.47;46.38;99094.50;5010155;27;102255;-64
2022/06/03 02:23:59;;;;;;;;;5.00;5.00;;;;;20.49;46.39;99089.59;5018248;27;102141;-64
2022/06/03 02:26:30;;;;;;;;;5.67;5.00;;;;;20.52;46.26;99091.00;4984278;27;108820;-64
2022/06/03 02:32:13;;;;;;;;;5.00;4.67;;;;;20.50;46.18;99087.66;5019591;27;104890;-64
2022/06/03 02:34:48;;;;;;;;;3.67;3.67;;;;;20.51;46.10;99088.50;5013612;27;102511;-64
2022/06/03 02:37:36;;;;;;;;;6.00;5.00;;;;;20.49;46.34;99083.25;5006722;27;109278;-64
2022/06/03 02:40:19;;;;;;;;;4.67;4.67;;;;;20.51;46.12;99088.50;5015674;27;103177;-64
2022/06/03 02:43:44;;;;;;;;;5.00;5.00;;;;;20.48;46.35;99087.09;5008097;27;105401;-64
2022/06/03 02:46:25;;;;;;;;;4.33;3.67;;;;;20.46;45.93;99083.78;4901907;28;105095;-65
2022/06/03 02:49:17;;;;;;;;;7.00;5.00;;;;;20.44;46.04;99083.22;4891929;28;109024;-64
2022/06/03 02:52:02;;;;;;;;;7.00;5.67;;;;;20.43;46.13;99093.34;4991532;27;102563;-64
2022/06/03 02:54:41;;;;;;;;;5.33;4.67;;;;;20.41;46.23;99087.28;4995602;27;102377;-64
2022/06/03 02:57:30;;;;;;;;;5.33;5.33;;;;;20.45;46.02;99091.19;5006553;27;102423;-64
2022/06/03 03:00:08;;;;;;;;;6.00;6.00;;;;;20.45;45.93;99091.19;5015876;27;108807;-64
2022/06/03 03:03:03;;;;;;;;;5.33;5.00;;;;;20.45;46.40;99087.59;5020119;27;102383;-64
2022/06/03 03:06:11;;;;;;;;;4.00;4.00;;;;;20.45;46.03;99093.91;5007813;27;102371;-64
2022/06/03 03:08:54;;;;;;;;;5.00;4.00;;;;;20.42;45.86;99090.84;4921356;28;102658;-64
2022/06/03 03:11:42;;;;;;;;;3.67;3.67;;;;;20.42;45.84;99093.59;4925924;28;109256;-64
2022/06/03 03:14:43;;;;;;;;;4.67;4.67;;;;;20.41;46.18;99095.50;4979994;27;102544;-64
2022/06/03 03:17:43;;;;;;;;;5.67;5.67;;;;;20.40;46.20;99099.34;5015005;27;102332;-64
2022/06/03 03:20:23;;;;;;;;;4.67;4.67;;;;;20.40;46.07;99098.50;4998698;27;102371;-64
2022/06/03 03:23:25;;;;;;;;;6.00;5.00;;;;;20.35;46.16;99101.19;5001312;27;108798;-64
2022/06/03 03:25:58;;;;;;;;;5.00;3.67;;;;;20.32;46.10;99102.53;5012332;27;108004;-64
2022/06/03 03:29:04;;;;;;;;;3.67;3.67;;;;;20.38;45.80;99103.44;5004644;27;102531;-64
2022/06/03 03:31:51;;;;;;;;;5.00;5.00;;;;;20.38;45.97;99107.00;5010064;27;103146;-64
2022/06/03 03:34:27;;;;;;;;;4.67;4.67;;;;;20.37;45.91;99097.09;5002488;27;108997;-64
2022/06/03 03:37:06;;;;;;;;;4.00;2.67;;;;;20.37;45.70;99099.84;5008305;27;102591;-64
2022/06/03 03:39:56;;;;;;;;;5.00;4.00;;;;;20.39;45.80;99107.84;5011856;27;102587;-64
2022/06/03 03:42:42;;;;;;;;;6.33;5.33;;;;;20.39;46.08;99108.69;5004833;27;105748;-64
2022/06/03 03:45:27;;;;;;;;;3.67;3.67;;;;;20.39;45.85;99110.59;5005504;27;108929;-64
2022/06/03 03:48:22;;;;;;;;;1.00;1.00;;;;;20.38;45.79;99108.94;5007534;27;102261;-64
2022/06/03 03:51:08;;;;;;;;;5.00;5.00;;;;;20.36;46.16;99102.84;5004820;27;102134;-64
2022/06/03 03:53:45;;;;;;;;;4.00;4.00;;;;;20.33;46.06;99104.19;5012124;27;103570;-64
2022/06/03 03:56:14;;;;;;;;;6.67;5.33;;;;;20.32;45.64;99108.00;5001103;27;108962;-64
2022/06/03 03:59:03;;;;;;;;;5.00;3.00;;;;;20.30;46.00;99104.72;5012037;27;103716;-64
2022/06/03 04:01:42;;;;;;;;;5.33;3.67;;;;;20.35;45.94;99112.19;5010173;27;103223;-64
2022/06/03 04:04:29;;;;;;;;;4.00;3.67;;;;;20.34;46.08;99122.34;5016655;27;102393;-64
2022/06/03 04:07:24;;;;;;;;;6.00;4.00;;;;;20.37;46.09;99121.00;5022561;27;109139;-64
2022/06/03 04:10:28;;;;;;;;;5.33;4.67;;;;;20.33;45.95;99123.41;5014666;27;102263;-64
2022/06/03 04:13:24;;;;;;;;;6.00;5.00;;;;;20.35;45.86;99129.47;5008514;27;102303;-64
2022/06/03 04:16:31;;;;;;;;;4.33;2.67;;;;;20.37;45.58;99126.47;5017902;27;102378;-64
2022/06/03 04:19:13;;;;;;;;;4.67;4.67;;;;;20.37;46.03;99127.31;4986327;27;109131;-64
2022/06/03 04:22:11;;;;;;;;;5.00;5.00;;;;;20.35;45.67;99126.72;5020804;27;102272;-64
2022/06/03 04:24:47;;;;;;;;;3.67;3.67;;;;;20.33;46.15;99128.06;5011903;27;104916;-64
2022/06/03 04:27:45;;;;;;;;;4.67;4.67;;;;;20.31;45.88;99128.31;5015921;27;102185;-62
2022/06/03 04:30:30;;;;;;;;;5.00;5.00;;;;;20.30;45.76;99128.59;5022127;27;108787;-65
2022/06/03 04:33:24;;;;;;;;;3.67;3.67;;;;;20.29;45.98;99124.13;5022609;27;102459;-64
2022/06/03 04:36:03;;;;;;;;;3.67;3.67;;;;;20.33;45.75;99117.09;5018885;27;102715;-64
2022/06/03 04:38:50;;;;;;;;;4.67;4.67;;;;;20.33;46.35;99126.16;5015573;27;102058;-65
2022/06/03 04:41:35;;;;;;;;;4.67;4.00;;;;;20.36;46.12;99125.66;4996567;28;109002;-64
2022/06/03 04:44:21;;;;;;;;;5.33;4.67;;;;;20.34;45.65;99127.84;5020021;27;102527;-64
2022/06/03 04:47:21;;;;;;;;;4.67;4.67;;;;;20.36;45.64;99135.81;5006463;27;102425;-64
2022/06/03 04:50:06;;;;;;;;;4.67;4.67;;;;;20.36;45.43;99128.41;5010361;27;102354;-64
2022/06/03 04:53:27;;;;;;;;;4.00;4.00;;;;;20.38;45.84;99144.63;5007568;27;107585;-64
2022/06/03 04:56:28;;;;;;;;;4.67;4.67;;;;;20.37;45.66;99132.81;5017760;27;106968;-64
2022/06/03 04:59:40;;;;;;;;;5.00;4.67;;;;;20.37;45.65;99138.31;5001376;27;102321;-64
2022/06/03 05:02:34;;;;;;;;;6.00;4.33;;;;;20.38;45.52;99136.41;4898690;28;102409;-64
2022/06/03 05:05:23;;;;;;;;;5.67;4.33;;;;;20.33;45.36;99134.41;5001990;27;108853;-64
2022/06/03 05:07:55;;;;;;;;;5.00;4.33;;;;;20.33;45.63;99142.63;5022061;27;102468;-64
2022/06/03 05:11:04;;;;;;;;;5.00;5.00;;;;;20.35;45.48;99139.66;5017582;27;102238;-64
2022/06/03 05:13:59;;;;;;;;;5.00;4.33;;;;;20.36;45.68;99136.63;4955629;27;102552;-64
2022/06/03 05:16:44;;;;;;;;;4.00;4.00;;;;;20.36;45.41;99141.28;5009757;27;108988;-64
2022/06/03 05:19:14;;;;;;;;;4.00;4.00;;;;;20.35;45.65;99134.97;5011942;27;102401;-64
2022/06/03 05:22:02;;;;;;;;;3.33;3.00;;;;;20.35;45.50;99128.66;5008732;27;102671;-64
2022/06/03 05:24:38;;;;;;;;;3.00;2.67;;;;;20.36;45.32;99138.56;4991576;27;102854;-64
2022/06/03 05:27:29;;;;;;;;;6.00;4.00;;;;;20.37;45.23;99138.31;5003036;27;104115;-64
2022/06/03 05:30:35;;;;;;;;;5.00;4.33;;;;;20.36;45.63;99144.88;4994408;27;102339;-64
2022/06/03 05:33:25;;;;;;;;;5.00;3.33;;;;;20.33;45.73;99136.31;4993803;27;102686;-64
2022/06/03 05:36:10;;;;;;;;;4.00;3.67;;;;;20.34;45.44;99138.81;4989396;27;102246;-64
2022/06/03 05:38:43;;;;;;;;;3.00;3.00;;;;;20.36;45.71;99146.78;4986430;27;104300;-64
2022/06/03 05:44:48;;;;;;;;;4.67;4.00;;;;;20.39;45.48;99144.41;5017728;27;102527;-64
2022/06/03 05:47:16;;;;;;;;;4.00;4.00;;;;;20.39;45.40;99136.16;5004254;27;105104;-62
2022/06/03 05:50:01;;;;;;;;;5.67;3.67;;;;;20.40;45.77;99136.97;5010881;27;108590;-64
2022/06/03 05:52:56;;;;;;;;;4.00;4.00;;;;;20.42;45.93;99132.91;5000357;27;103691;-64
2022/06/03 05:55:36;;;;;;;;;4.00;2.67;;;;;20.41;45.74;99133.97;5005887;27;102485;-64
2022/06/03 05:58:29;;;;;;;;;3.67;3.67;;;;;20.42;45.97;99141.13;5007851;27;103311;-64
2022/06/03 06:01:02;;;;;;;;;4.00;3.67;;;;;20.42;45.63;99137.56;5001859;27;108513;-64
2022/06/03 06:03:36;;;;;;;;;4.33;3.67;;;;;20.42;45.97;99132.06;5009314;27;102781;-64
2022/06/03 06:06:20;;;;;;;;;4.67;4.67;;;;;20.40;45.75;99126.81;4977781;27;102780;-64
2022/06/03 06:09:09;;;;;;;;;3.33;3.33;;;;;20.42;45.65;99135.66;5003610;27;102611;-64
2022/06/03 06:11:58;;;;;;;;;3.00;3.00;;;;;20.43;45.71;99134.56;5014636;27;104328;-64
2022/06/03 06:14:31;;;;;;;;;4.67;3.67;;;;;20.44;45.78;99122.47;4999629;27;102543;-64
2022/06/03 06:17:03;;;;;;;;;3.67;3.67;;;;;20.45;45.86;99128.78;5015107;27;102071;-64
2022/06/03 06:19:37;;;;;;;;;3.33;3.00;;;;;20.45;45.89;99124.13;4990784;27;102666;-64
2022/06/03 06:22:19;;;;;;;;;4.67;4.00;;;;;20.45;46.05;99123.31;5012555;27;105330;-64
2022/06/03 06:24:57;;;;;;;;;4.00;3.33;;;;;20.45;45.75;99124.13;5016346;27;105582;-64
2022/06/03 06:27:44;;;;;;;;;2.00;2.00;;;;;20.46;45.82;99124.97;5001908;27;102690;-64
2022/06/03 06:30:38;;;;;;;;;4.00;3.67;;;;;20.46;45.88;99125.81;4999685;27;102612;-64
2022/06/03 06:33:12;;;;;;;;;4.67;4.67;;;;;20.47;46.07;99132.13;4997460;27;103157;-64
2022/06/03 06:35:48;;;;;;;;;2.67;2.67;;;;;20.46;45.53;99131.31;5006673;27;102338;-64
2022/06/03 06:38:26;;;;;;;;;4.33;4.33;;;;;20.47;45.81;99126.66;5009660;27;102159;-64
2022/06/03 06:40:59;;;;;;;;;2.67;2.67;;;;;20.47;45.75;99123.91;5023597;27;102347;-64
2022/06/03 06:44:00;;;;;;;;;3.67;3.33;;;;;20.48;45.52;99125.56;5023569;27;104234;-64
2022/06/03 06:46:48;;;;;;;;;4.67;4.00;;;;;20.48;45.82;99126.41;5014087;27;102644;-63
2022/06/03 06:49:43;;;;;;;;;4.00;4.00;;;;;20.49;46.29;99129.97;5010895;27;102572;-64
2022/06/03 06:52:25;;;;;;;;;4.33;3.67;;;;;20.49;45.75;99125.28;5017209;27;102177;-64
2022/06/03 06:55:00;;;;;;;;;4.33;3.00;;;;;20.51;45.95;99121.47;5005037;27;109582;-64
2022/06/03 06:57:32;;;;;;;;;3.00;3.00;;;;;20.51;46.11;99124.22;4998409;28;102479;-64
2022/06/03 07:00:05;;;;;;;;;3.33;2.67;;;;;20.51;45.85;99115.97;5002137;27;102113;-64
2022/06/03 07:02:37;;;;;;;;;3.00;2.67;;;;;20.51;46.10;99126.97;5024739;27;102200;-64
2022/06/03 07:05:04;;;;;;;;;3.00;3.00;;;;;20.51;45.87;99121.47;5014681;27;104150;-64
2022/06/03 07:07:46;;;;;;;;;3.00;3.00;;;;;20.52;45.74;99125.88;5009852;27;102209;-64
2022/06/03 07:10:13;;;;;;;;;3.00;3.00;;;;;20.51;45.76;99111.31;5008895;27;102711;-64
2022/06/03 07:12:43;;;;;;;;;3.33;3.00;;;;;20.52;46.10;99118.47;5022258;27;102164;-64
2022/06/03 07:15:41;;;;;;;;;2.00;2.00;;;;;20.52;46.40;99117.66;4973405;27;108908;-64
2022/06/03 07:21:27;;;;;;;;;2.67;2.67;;;;;20.54;45.96;99115.47;5003067;27;102309;-63
2022/06/03 07:23:56;;;;;;;;;3.33;2.67;;;;;20.55;46.07;99119.88;4990275;27;102219;-64
2022/06/03 07:26:33;;;;;;;;;2.00;2.00;;;;;20.54;45.88;99113.56;4982871;27;104069;-64
2022/06/03 07:29:14;;;;;;;;;3.67;3.33;;;;;20.55;45.84;99115.22;4991152;27;102235;-64
2022/06/03 07:31:48;;;;;;;;;4.33;4.00;;;;;20.55;46.10;99112.47;4996121;27;102147;-64
2022/06/03 07:34:34;;;;;;;;;4.33;2.67;;;;;20.56;45.87;99113.31;5019486;27;102588;-64
2022/06/03 07:37:17;;;;;;;;;4.00;3.33;;;;;20.56;45.98;99114.16;4994566;27;109062;-64
2022/06/03 07:39:53;;;;;;;;;3.00;3.00;;;;;20.56;46.26;99108.66;4986286;28;102245;-64
2022/06/03 07:42:30;;;;;;;;;3.00;3.00;;;;;20.56;46.16;99099.56;5015814;27;102474;-63
2022/06/03 07:45:23;;;;;;;;;2.33;2.33;;;;;20.57;46.33;99098.50;4997977;27;102402;-64
2022/06/03 07:48:02;;;;;;;;;2.67;2.00;;;;;20.57;46.05;99101.25;4999468;27;108739;-64
2022/06/03 07:50:30;;;;;;;;;5.33;4.00;;;;;20.57;46.04;99104.00;5008745;27;106800;-64
2022/06/03 07:53:09;;;;;;;;;3.67;3.67;;;;;20.58;46.30;99100.16;5006577;27;102245;-64
2022/06/03 07:55:36;;;;;;;;;4.00;3.33;;;;;20.59;45.93;99096.31;5008274;27;102559;-64
2022/06/03 07:58:07;;;;;;;;;3.00;3.00;;;;;20.60;46.30;99103.47;5018174;27;104113;-64
2022/06/03 08:00:38;;;;;;;;;3.67;3.67;;;;;20.60;45.95;99104.31;5012226;27;102346;-64
2022/06/03 08:03:33;;;;;;;;;3.00;2.67;;;;;20.60;46.05;99096.06;5008584;27;109814;-64
2022/06/03 08:06:01;;;;;;;;;1.00;0.67;;;;;20.61;46.26;99094.16;4987754;28;105978;-64
2022/06/03 08:11:18;;;;;;;;;3.67;3.67;;;;;20.60;45.93;99092.47;5001807;27;102548;-64
2022/06/03 08:13:49;;;;;;;;;3.67;2.67;;;;;20.60;46.25;99087.81;5016866;27;102508;-64
2022/06/03 08:16:34;;;;;;;;;3.00;3.00;;;;;20.61;45.97;99085.91;5002907;28;102277;-64
2022/06/03 08:19:18;;;;;;;;;3.33;2.67;;;;;20.62;46.33;99091.16;5029663;27;109028;-64
2022/06/03 08:21:53;;;;;;;;;2.67;2.67;;;;;20.62;46.11;99090.31;5017123;27;102574;-64
2022/06/03 08:24:35;;;;;;;;;3.00;3.00;;;;;20.63;46.47;99086.47;5002709;27;102275;-64
2022/06/03 08:27:05;;;;;;;;;3.00;3.00;;;;;20.64;46.42;99088.13;4996072;28;102574;-64
2022/06/03 08:29:42;;;;;;;;;3.33;3.33;;;;;20.65;45.99;99095.31;5022649;27;104879;-64
2022/06/03 08:32:37;;;;;;;;;3.33;2.67;;;;;20.64;45.91;99085.38;5012247;27;102222;-64
2022/06/03 08:35:13;;;;;;;;;1.67;1.67;;;;;20.65;46.51;99085.16;5005463;27;102475;-64
2022/06/03 08:37:51;;;;;;;;;3.33;3.33;;;;;20.65;45.95;99084.31;5019402;27;102065;-64
2022/06/03 08:40:37;;;;;;;;;5.67;4.00;;;;;20.66;46.27;99088.72;5024680;27;108942;-64
2022/06/03 08:43:21;;;;;;;;;1.00;1.00;;;;;20.66;46.36;99083.22;4999259;27;102457;-64
2022/06/03 08:46:12;;;;;;;;;4.00;4.00;;;;;20.66;46.08;99083.22;4966153;28;102539;-64
2022/06/03 08:48:43;;;;;;;;;3.33;3.00;;;;;20.67;46.48;99088.44;5004371;27;102180;-64
2022/06/03 08:51:12;;;;;;;;;2.67;2.67;;;;;20.69;46.29;99090.94;5004091;28;104202;-64
2022/06/03 08:53:45;;;;;;;;;2.00;2.00;;;;;20.68;45.91;99081.03;5016021;27;102353;-64
2022/06/03 08:56:25;;;;;;;;;3.00;3.00;;;;;20.70;46.19;99082.47;5017745;27;102499;-64
2022/06/03 08:58:58;;;;;;;;;2.33;2.33;;;;;20.70;46.27;99081.63;4982031;27;102710;-64
2022/06/03 09:01:27;;;;;;;;;2.67;2.67;;;;;20.70;45.93;99082.47;5010877;27;104218;-64
2022/06/03 09:04:21;;;;;;;;;2.67;2.67;;;;;20.70;46.32;99070.63;5002452;27;102227;-64
2022/06/03 09:07:13;;;;;;;;;1.67;1.67;;;;;20.72;46.26;99079.44;5011786;27;102159;-64
2022/06/03 09:09:47;;;;;;;;;3.00;2.33;;;;;20.72;46.25;99071.19;4998629;28;103050;-64
2022/06/03 09:12:19;;;;;;;;;4.33;3.00;;;;;20.73;46.07;99075.63;4999757;28;104176;-64
2022/06/03 09:14:47;;;;;;;;;2.67;2.67;;;;;20.73;46.12;99079.19;4993478;27;102496;-64
2022/06/03 09:17:33;;;;;;;;;3.00;2.00;;;;;20.73;46.54;99064.63;4997731;27;102322;-64
2022/06/03 09:20:03;;;;;;;;;2.67;2.33;;;;;20.74;46.24;99066.28;5019709;27;102135;-64
2022/06/03 09:22:31;;;;;;;;;2.00;2.00;;;;;20.74;46.42;99071.78;4995379;27;104067;-64
2022/06/03 09:24:59;;;;;;;;;1.67;1.67;;;;;20.74;45.98;99061.63;5002114;27;102031;-64
2022/06/03 09:27:27;;;;;;;;;2.67;2.67;;;;;20.75;46.47;99060.53;5012377;27;102771;-64
2022/06/03 09:29:55;;;;;;;;;3.00;3.00;;;;;20.76;46.38;99064.94;5022466;27;102143;-64
2022/06/03 09:32:23;;;;;;;;;2.33;2.33;;;;;20.77;46.18;99061.09;5011508;27;104199;-62
2022/06/03 09:34:56;;;;;;;;;2.00;1.33;;;;;20.78;46.34;99056.44;5014576;27;102074;-64
2022/06/03 09:37:25;;;;;;;;;2.33;2.00;;;;;20.78;46.11;99053.69;4992376;27;102079;-62
2022/06/03 09:39:52;;;;;;;;;4.33;2.33;;;;;20.78;46.09;99051.78;5017227;27;102322;-64
2022/06/03 09:42:19;;;;;;;;;2.33;2.33;;;;;20.79;46.28;99047.94;5012913;27;109007;-63
2022/06/03 09:44:47;;;;;;;;;2.33;2.00;;;;;20.80;46.42;99054.28;5018093;27;102248;-64
2022/06/03 09:47:15;;;;;;;;;2.00;2.00;;;;;20.79;46.10;99047.94;5000719;27;102265;-65
2022/06/03 09:49:42;;;;;;;;;3.67;3.00;;;;;20.80;46.48;99055.09;5000024;27;104566;-64
2022/06/03 09:52:12;;;;;;;;;2.00;1.67;;;;;20.80;46.57;99051.53;5005441;27;104056;-64
2022/06/03 09:54:41;;;;;;;;;2.67;1.67;;;;;20.83;45.60;99056.50;5000026;27;102267;-64
2022/06/03 09:57:33;;;;;;;;;3.00;3.00;;;;;20.83;45.77;99053.75;5009735;27;103994;-64
2022/06/03 10:00:24;;;;;;;;;2.33;2.33;;;;;20.86;45.92;99056.00;5012731;27;102550;-64
2022/06/03 10:02:53;;;;;;;;;2.67;2.67;;;;;20.87;45.89;99053.00;5011797;27;109248;-64
2022/06/03 10:05:20;;;;;;;;;2.33;1.67;;;;;20.90;45.89;99057.13;5013049;27;103182;-64
2022/06/03 10:07:48;;;;;;;;;2.00;2.00;;;;;20.92;45.45;99053.06;5018802;27;102284;-65
2022/06/03 10:13:03;;;;;;;;;2.00;1.67;;;;;21.04;45.71;99050.16;5004626;27;109001;-65
2022/06/03 10:15:41;;;;;;;;;2.00;2.00;;;;;21.08;46.17;99045.78;5000732;27;103359;-64
2022/06/03 10:18:26;;;;;;;;;3.00;3.00;;;;;21.14;47.07;99049.47;4982902;27;109836;-64
2022/06/03 10:21:05;;;;;;;;;4.33;3.67;;;;;21.17;47.73;99041.53;5022974;27;102119;-64
2022/06/03 10:23:51;;;;;;;;;4.00;3.67;;;;;21.21;49.25;99033.59;5009391;27;104290;-64
2022/06/03 10:26:22;;;;;;;;;4.00;4.00;;;;;21.27;49.56;99030.63;4999350;27;102366;-65
2022/06/03 10:28:51;;;;;;;;;6.00;5.00;;;;;21.31;49.64;99036.44;5009360;27;103786;-64
2022/06/03 10:31:28;;;;;;;;;4.33;4.33;;;;;21.31;50.32;99023.53;5011678;27;102300;-64
2022/06/03 10:34:03;;;;;;;;;6.00;6.00;;;;;21.31;50.40;99020.78;4999644;27;109063;-63
2022/06/03 10:36:36;;;;;;;;;5.00;5.00;;;;;21.34;50.31;99022.19;5019242;27;103160;-64
2022/06/03 10:39:04;;;;;;;;;5.33;4.00;;;;;21.35;50.25;99029.34;5019103;27;102642;-64
2022/06/03 10:41:40;;;;;;;;;5.00;5.00;;;;;21.36;50.12;99028.25;5021298;27;102734;-64
2022/06/03 10:44:17;;;;;;;;;7.00;5.33;;;;;21.38;50.29;99026.09;5012164;27;103987;-64
2022/06/03 10:47:04;;;;;;;;;6.33;5.67;;;;;21.38;50.20;99023.31;5009313;27;102387;-64
2022/06/03 10:49:36;;;;;;;;;6.33;6.00;;;;;21.41;49.82;99019.22;5006387;27;102837;-64
2022/06/03 11:03:27;;;;;;;;;7.67;7.00;;;;;21.45;49.70;99012.09;5016204;27;102537;-64
2022/06/03 11:05:55;;;;;;;;;6.33;6.33;;;;;21.45;49.43;99012.09;5007140;27;110505;-62
2022/06/03 11:08:22;;;;;;;;;6.33;6.33;;;;;21.48;49.59;99006.09;5008240;27;102281;-64
2022/06/03 11:10:51;;;;;;;;;8.67;6.00;;;;;21.45;49.00;99009.34;5015083;27;102130;-64
2022/06/03 11:13:31;;;;;;;;;7.67;7.33;;;;;21.48;48.83;99006.09;5012790;27;102381;-64
2022/06/03 11:16:16;;;;;;;;;6.33;6.33;;;;;21.49;48.75;99013.22;5016572;27;108858;-64
2022/06/03 11:18:44;;;;;;;;;6.67;6.00;;;;;21.48;49.05;99000.59;5009160;27;101953;-64
2022/06/03 11:21:19;;;;;;;;;8.00;7.00;;;;;21.48;48.99;98984.06;5011081;27;102263;-64
2022/06/03 11:23:51;;;;;;;;;7.67;6.67;;;;;21.49;48.45;98991.22;5014946;27;102612;-64
2022/06/03 11:26:18;;;;;;;;;8.00;7.00;;;;;21.50;48.74;98995.63;4995438;27;104041;-64
2022/06/03 11:28:53;;;;;;;;;8.00;7.00;;;;;21.50;49.23;99010.22;5012122;27;102597;-64
2022/06/03 11:31:20;;;;;;;;;7.00;7.00;;;;;21.50;48.48;99004.72;5008249;27;108783;-64
2022/06/03 11:33:50;;;;;;;;;5.00;5.00;;;;;21.52;48.47;99001.72;5022953;27;102504;-64
2022/06/03 11:36:37;;;;;;;;;8.00;7.00;;;;;21.51;48.64;98981.63;5002352;27;104090;-64
2022/06/03 11:39:30;;;;;;;;;8.67;7.33;;;;;21.53;48.59;98986.84;4996508;27;102462;-64
2022/06/03 11:42:20;;;;;;;;;5.67;5.33;;;;;21.54;48.83;98983.00;4984299;27;102644;-64
2022/06/03 11:44:47;;;;;;;;;7.33;7.00;;;;;21.54;48.63;98977.50;4988267;27;104105;-64
2022/06/03 11:47:30;;;;;;;;;6.33;6.00;;;;;21.55;48.49;98974.50;5004116;27;104102;-64
2022/06/03 11:49:57;;;;;;;;;5.00;4.67;;;;;21.56;48.45;98953.31;5013230;27;102220;-63
2022/06/03 11:52:24;;;;;;;;;7.00;6.00;;;;;21.55;48.14;98965.41;5016604;27;102398;-63
2022/06/03 11:54:54;;;;;;;;;7.33;6.67;;;;;21.56;48.18;98953.31;5006817;27;102434;-64
2022/06/03 11:57:23;;;;;;;;;6.00;5.67;;;;;21.56;48.26;98947.81;5005678;27;109062;-64
2022/06/03 11:59:52;;;;;;;;;6.67;6.67;;;;;21.55;48.23;98941.47;5029231;27;102137;-64
2022/06/03 12:02:32;;;;;;;;;7.33;6.67;;;;;21.57;48.48;98938.47;5003734;27;102399;-64
2022/06/03 12:05:16;;;;;;;;;5.00;5.00;;;;;21.57;48.39;98935.72;5006868;27;102355;-64
2022/06/03 12:08:10;;;;;;;;;8.00;6.33;;;;;21.59;48.03;98936.25;4987939;27;104209;-63
2022/06/03 12:10:51;;;;;;;;;7.00;6.00;;;;;21.59;48.19;98931.59;5012049;27;102380;-64
2022/06/03 12:13:27;;;;;;;;;5.00;5.00;;;;;21.60;47.88;98924.16;5004685;28;102082;-63
2022/06/03 12:15:54;;;;;;;;;5.00;5.00;;;;;21.60;48.17;98922.25;5006465;27;102218;-63
2022/06/03 12:18:42;;;;;;;;;5.67;5.00;;;;;21.62;48.14;98919.22;5017130;27;110351;-63
2022/06/03 12:21:13;;;;;;;;;5.67;5.67;;;;;21.61;48.16;98925.84;4992842;27;102163;-63
2022/06/03 12:23:43;;;;;;;;;6.67;6.00;;;;;21.62;47.93;98920.03;5011879;27;102166;-64
2022/06/03 12:26:18;;;;;;;;;5.33;5.33;;;;;21.63;48.01;98909.88;5002325;27;102258;-63
2022/06/03 12:28:46;;;;;;;;;5.33;5.33;;;;;21.63;48.20;98910.72;5000744;27;104166;-64
2022/06/03 12:31:19;;;;;;;;;5.33;5.33;;;;;21.64;48.04;98906.03;5016532;27;102328;-64
2022/06/03 12:33:58;;;;;;;;;5.00;4.67;;;;;21.66;47.58;98909.34;5018078;27;102258;-63
2022/06/03 12:36:47;;;;;;;;;6.00;6.00;;;;;21.69;47.63;98914.31;4979731;27;103420;-64
2022/06/03 12:39:27;;;;;;;;;5.67;5.33;;;;;21.71;47.79;98907.44;5013746;27;108544;-64
2022/06/03 12:41:57;;;;;;;;;6.00;5.33;;;;;21.72;47.58;98908.28;5019148;27;102107;-65
2022/06/03 12:45:14;;;;;;;;;5.00;4.33;;;;;21.79;47.44;98898.69;4997293;27;102232;-64
2022/06/03 12:47:44;;;;;;;;;6.33;5.00;;;;;21.86;47.27;98897.63;5010573;27;102239;-64
2022/06/03 12:50:34;;;;;;;;;5.00;5.00;;;;;21.90;47.40;98894.06;5009135;27;104003;-65
2022/06/03 12:53:25;;;;;;;;;5.00;5.00;;;;;21.93;48.21;98882.53;5008245;27;102509;-64
2022/06/03 12:55:54;;;;;;;;;6.33;6.33;;;;;21.95;47.70;98883.13;5020155;27;102199;-64